createdAt,value
2022-11-20T06:16:06.935Z,100371.69
2022-11-20T06:17:08.989Z,100372.56
2022-11-20T06:18:10.971Z,100367.53
2022-11-20T06:19:12.950Z,100370.13
2022-11-20T06:20:14.979Z,100376.50
2022-11-20T06:21:19.483Z,100378.66
2022-11-20T06:22:21.755Z,100371.72
2022-11-20T06:23:25.169Z,100379.66
2022-11-20T06:24:35.911Z,100380.03
2022-11-20T06:25:42.956Z,100389.22
2022-11-20T06:26:46.834Z,100399.53
2022-11-20T06:27:49.750Z,100400.28
2022-11-20T06:28:53.334Z,100402.78
2022-11-20T06:29:59.034Z,100400.69
2022-11-20T06:31:08.626Z,100393.72
2022-11-20T06:32:55.375Z,100400.94
2022-11-20T06:34:20.976Z,100405.16
2022-11-20T06:37:50.691Z,100398.53
2022-11-20T06:39:14.577Z,100406.47
2022-11-20T06:40:44.159Z,100412.22
2022-11-20T06:41:59.556Z,100408.97
2022-11-20T06:43:15.442Z,100414.41
2022-11-20T06:44:23.271Z,100411.84
2022-11-20T06:46:03.886Z,100400.16
2022-11-20T06:48:04.004Z,100404.28
2022-11-20T06:49:19.649Z,100403.38
2022-11-20T06:50:22.020Z,100397.22
2022-11-20T06:51:24.128Z,100403.63
2022-11-20T06:52:27.663Z,100391.34
2022-11-20T06:53:32.447Z,100391.25
2022-11-20T06:54:34.797Z,100396.19
2022-11-20T06:55:38.438Z,100391.75
2022-11-20T06:56:40.834Z,100387.22
2022-11-20T06:57:55.764Z,100390.16
2022-11-20T06:59:05.550Z,100396.97
2022-11-20T07:00:08.457Z,100403.72
2022-11-20T07:01:12.561Z,100399.91
2022-11-20T07:02:16.789Z,100403.63
2022-11-20T07:03:26.630Z,100407.63
2022-11-20T07:04:30.287Z,100399.78
2022-11-20T07:05:37.443Z,100399.22
2022-11-20T07:06:42.920Z,100402.41
2022-11-20T07:07:44.917Z,100396.97
2022-11-20T07:08:48.608Z,100398.69
2022-11-20T07:09:52.888Z,100400.00
2022-11-20T07:10:59.732Z,100403.25
2022-11-20T07:12:01.897Z,100403.03
2022-11-20T07:13:09.474Z,100395.88
2022-11-20T07:14:14.122Z,100402.00
2022-11-20T07:15:17.646Z,100399.59
2022-11-20T07:16:20.190Z,100399.38
2022-11-20T07:17:22.803Z,100400.59
2022-11-20T07:18:24.734Z,100399.19
2022-11-20T07:19:26.679Z,100402.81
2022-11-20T07:20:30.011Z,100411.91
2022-11-20T07:21:32.731Z,100400.41
2022-11-20T07:22:35.263Z,100402.81
2022-11-20T07:23:38.635Z,100399.00
2022-11-20T07:24:45.862Z,100394.41
2022-11-20T07:26:12.190Z,100404.13
2022-11-20T07:27:17.154Z,100414.69
2022-11-20T07:28:20.846Z,100409.91
2022-11-20T07:29:23.295Z,100414.50
2022-11-20T07:30:31.249Z,100407.25
2022-11-20T07:31:34.479Z,100403.13
2022-11-20T07:32:48.856Z,100408.78
2022-11-20T07:34:14.657Z,100409.38
2022-11-20T07:37:11.607Z,100403.66
2022-11-20T07:39:34.264Z,100407.06
2022-11-20T07:40:38.684Z,100404.06
2022-11-20T07:41:42.584Z,100407.16
2022-11-20T07:43:04.521Z,100411.69
2022-11-20T07:44:14.807Z,100396.91
2022-11-20T07:45:22.554Z,100402.34
2022-11-20T07:46:30.808Z,100396.09
2022-11-20T07:47:47.139Z,100407.66
2022-11-20T07:48:51.204Z,100408.97
2022-11-20T07:50:19.871Z,100410.28
2022-11-20T07:51:31.958Z,100420.94
2022-11-20T07:52:37.692Z,100417.94
2022-11-20T07:53:56.509Z,100417.31
2022-11-20T07:57:13.575Z,100424.19
2022-11-20T08:02:38.910Z,100426.69
2022-11-20T08:03:52.029Z,100431.91
2022-11-20T08:05:14.084Z,100437.56
2022-11-20T08:06:28.804Z,100425.78
2022-11-20T08:07:40.010Z,100422.75
2022-11-20T08:08:46.546Z,100427.94
2022-11-20T08:09:55.790Z,100421.09
2022-11-20T08:11:27.083Z,100424.75
2022-11-20T08:14:16.038Z,100439.94
2022-11-20T08:15:19.444Z,100440.97
2022-11-20T08:16:33.095Z,100441.88
2022-11-20T08:17:39.956Z,100435.84
2022-11-20T08:18:42.197Z,100439.69
2022-11-20T08:19:44.485Z,100443.91
2022-11-20T08:25:52.666Z,100440.47
2022-11-20T08:26:58.221Z,100449.31
2022-11-20T08:28:20.297Z,100446.50
2022-11-20T08:29:25.499Z,100445.41
2022-11-20T08:30:30.104Z,100445.00
2022-11-20T08:31:33.842Z,100447.31
2022-11-20T08:32:41.209Z,100447.91
2022-11-20T08:33:57.045Z,100440.19
2022-11-20T08:35:42.204Z,100437.47
2022-11-20T08:37:12.812Z,100439.16
2022-11-20T08:38:20.233Z,100436.06
2022-11-20T08:39:24.922Z,100441.25
2022-11-20T08:40:27.436Z,100438.84
2022-11-20T08:41:33.038Z,100445.28
2022-11-20T08:42:35.269Z,100439.91
2022-11-20T08:43:39.723Z,100445.59
2022-11-20T08:44:46.382Z,100443.69
2022-11-20T08:45:49.138Z,100437.13
2022-11-20T08:46:53.122Z,100437.84
2022-11-20T08:48:02.195Z,100440.84
2022-11-20T08:49:08.724Z,100448.81
2022-11-20T08:50:16.412Z,100450.81
2022-11-20T08:51:23.907Z,100455.94
2022-11-20T08:52:37.005Z,100457.88
2022-11-20T08:53:43.983Z,100457.13
2022-11-20T08:54:46.524Z,100455.53
2022-11-20T08:55:52.963Z,100458.78
2022-11-20T08:56:56.197Z,100468.22
2022-11-20T08:57:58.796Z,100476.47
2022-11-20T08:59:20.532Z,100475.06
2022-11-20T09:00:24.986Z,100478.19
2022-11-20T09:01:28.190Z,100487.16
2022-11-20T09:02:30.822Z,100491.78
2022-11-20T09:03:34.465Z,100485.84
2022-11-20T09:04:37.075Z,100492.50
2022-11-20T09:05:40.146Z,100496.00
2022-11-20T09:06:43.284Z,100494.84
2022-11-20T09:07:45.998Z,100487.69
2022-11-20T09:08:48.384Z,100491.53
2022-11-20T09:10:09.740Z,100494.31
2022-11-20T09:11:12.953Z,100487.69
2022-11-20T09:12:19.545Z,100485.34
2022-11-20T09:13:23.934Z,100489.00
2022-11-20T09:14:30.363Z,100497.72
2022-11-20T09:15:36.062Z,100501.44
2022-11-20T09:17:04.550Z,100495.22
2022-11-20T09:18:08.619Z,100500.44
2022-11-20T09:19:35.054Z,100495.66
2022-11-20T09:20:51.208Z,100499.06
2022-11-20T09:22:14.974Z,100515.78
2022-11-20T09:24:46.225Z,100505.88
2022-11-20T09:26:02.149Z,100504.88
2022-11-20T09:27:25.651Z,100509.50
2022-11-20T09:30:59.795Z,100526.47
2022-11-20T09:33:40.166Z,100527.16
2022-11-20T09:37:06.522Z,100528.41
2022-11-20T09:38:12.540Z,100534.84
2022-11-20T09:39:22.624Z,100537.09
2022-11-20T09:40:34.965Z,100538.69
2022-11-20T09:42:05.110Z,100535.56
2022-11-20T09:43:43.822Z,100536.09
2022-11-20T09:45:18.027Z,100527.84
2022-11-20T09:47:26.514Z,100534.22
2022-11-20T09:49:10.362Z,100532.72
2022-11-20T09:51:15.943Z,100533.31
2022-11-20T09:52:47.187Z,100538.13
2022-11-20T09:54:15.311Z,100540.94
2022-11-20T09:55:22.993Z,100542.06
2022-11-20T09:58:49.951Z,100537.75
2022-11-20T10:01:42.703Z,100541.66
2022-11-20T10:03:20.620Z,100536.84
2022-11-20T10:05:15.851Z,100536.50
2022-11-20T10:06:32.392Z,100532.47
2022-11-20T10:10:19.728Z,100547.97
2022-11-20T10:12:32.112Z,100546.78
2022-11-20T10:14:17.517Z,100547.09
2022-11-20T10:15:54.335Z,100542.97
2022-11-20T10:17:18.990Z,100547.06
2022-11-20T10:18:46.767Z,100549.38
2022-11-20T10:20:14.725Z,100548.06
2022-11-20T10:24:01.358Z,100547.59
2022-11-20T10:25:51.644Z,100555.00
2022-11-20T10:27:58.056Z,100551.19
2022-11-20T10:29:27.439Z,100551.41
2022-11-20T10:30:40.355Z,100555.84
2022-11-20T10:31:50.851Z,100552.19
2022-11-20T10:33:23.298Z,100560.25
2022-11-20T10:34:56.894Z,100557.38
2022-11-20T10:36:27.038Z,100559.63
2022-11-20T10:37:33.625Z,100561.44
2022-11-20T10:38:56.339Z,100559.03
2022-11-20T10:40:15.494Z,100563.09
2022-11-20T10:41:37.046Z,100555.78
2022-11-20T10:43:00.237Z,100550.75
2022-11-20T10:44:37.504Z,100561.25
2022-11-20T10:45:58.293Z,100561.03
2022-11-20T10:47:18.710Z,100561.34
2022-11-20T10:48:31.684Z,100558.41
2022-11-20T10:49:36.941Z,100567.13
2022-11-20T10:50:49.847Z,100561.25
2022-11-20T10:52:04.783Z,100565.56
2022-11-20T10:53:40.549Z,100572.31
2022-11-20T10:55:06.852Z,100577.06
2022-11-20T10:56:37.217Z,100578.75
2022-11-20T10:58:12.705Z,100580.53
2022-11-20T10:59:33.860Z,100568.91
2022-11-20T11:01:50.885Z,100582.81
2022-11-20T11:03:25.105Z,100575.56
2022-11-20T11:04:57.289Z,100572.38
2022-11-20T11:06:41.847Z,100575.97
2022-11-20T11:09:53.923Z,100580.59
2022-11-20T11:11:40.953Z,100580.81
2022-11-20T11:13:01.519Z,100579.22
2022-11-20T11:14:15.449Z,100577.59
2022-11-20T11:15:48.073Z,100578.22
2022-11-20T11:17:02.045Z,100582.47
2022-11-20T11:18:05.885Z,100579.00
2022-11-20T11:22:46.366Z,100588.59
2022-11-20T11:24:41.176Z,100594.66
2022-11-20T11:26:28.271Z,100596.16
2022-11-20T11:27:43.066Z,100590.84
2022-11-20T11:30:46.763Z,100585.34
2022-11-20T11:31:58.704Z,100579.00
2022-11-20T11:33:27.135Z,100577.38
2022-11-20T11:34:49.199Z,100580.53
2022-11-20T11:36:29.016Z,100567.13
2022-11-20T11:37:43.484Z,100572.56
2022-11-20T11:39:15.294Z,100574.41
2022-11-20T11:40:26.538Z,100579.72
2022-11-20T11:41:37.908Z,100579.44
2022-11-20T11:42:52.027Z,100588.59
2022-11-20T11:44:16.386Z,100585.88
2022-11-20T11:45:26.333Z,100583.03
2022-11-20T11:46:35.689Z,100575.91
2022-11-20T11:47:49.735Z,100581.84
2022-11-20T11:49:16.487Z,100579.13
2022-11-20T11:50:32.752Z,100577.81
2022-11-20T11:52:08.302Z,100575.75
2022-11-20T11:53:39.181Z,100589.28
2022-11-20T11:55:00.167Z,100587.88
2022-11-20T11:56:25.350Z,100585.16
2022-11-20T11:57:50.739Z,100586.25
2022-11-20T11:59:27.856Z,100587.88
2022-11-20T12:01:24.051Z,100590.28
2022-11-20T12:02:53.967Z,100595.56
2022-11-20T12:04:52.183Z,100597.16
2022-11-20T12:06:36.709Z,100601.13
2022-11-20T12:07:47.129Z,100605.38
2022-11-20T12:09:00.542Z,100598.97
2022-11-20T12:10:18.169Z,100595.34
2022-11-20T12:11:47.031Z,100598.78
2022-11-20T12:13:11.819Z,100601.69
2022-11-20T12:14:42.190Z,100599.06
2022-11-20T12:15:52.052Z,100603.63
2022-11-20T12:17:00.309Z,100597.06
2022-11-20T12:18:09.494Z,100596.66
2022-11-20T12:19:15.753Z,100604.28
2022-11-20T12:20:26.442Z,100602.00
2022-11-20T12:21:59.986Z,100602.00
2022-11-20T12:23:48.596Z,100600.41
2022-11-20T12:25:22.866Z,100592.53
2022-11-20T12:26:55.402Z,100599.88
2022-11-20T12:28:49.067Z,100600.19
2022-11-20T12:30:45.070Z,100595.53
2022-11-20T12:32:36.324Z,100592.44
2022-11-20T12:34:55.089Z,100594.84
2022-11-20T12:36:27.456Z,100595.16
2022-11-20T12:38:17.129Z,100589.22
2022-11-20T12:39:30.991Z,100590.09
2022-11-20T12:41:02.273Z,100594.84
2022-11-20T12:43:08.365Z,100594.94
2022-11-20T12:45:21.646Z,100601.41
2022-11-20T12:46:59.396Z,100600.91
2022-11-20T12:48:46.419Z,100606.88
2022-11-20T12:50:12.043Z,100597.38
2022-11-20T12:51:55.299Z,100595.47
2022-11-20T12:53:30.335Z,100600.81
2022-11-20T12:55:22.699Z,100599.38
2022-11-20T12:56:27.735Z,100604.41
2022-11-20T12:58:01.853Z,100607.66
2022-11-20T12:59:40.868Z,100612.47
2022-11-20T13:00:59.482Z,100612.38
2022-11-20T13:02:16.483Z,100602.19
2022-11-20T13:03:54.930Z,100618.53
2022-11-20T13:05:18.087Z,100621.97
2022-11-20T13:06:24.356Z,100622.75
2022-11-20T13:07:36.880Z,100622.06
2022-11-20T13:08:44.668Z,100626.41
2022-11-20T13:09:54.397Z,100616.41
2022-11-20T13:11:15.519Z,100620.25
2022-11-20T13:12:22.050Z,100623.69
2022-11-20T13:13:57.703Z,100611.47
2022-11-20T13:15:41.287Z,100620.34
2022-11-20T13:17:46.526Z,100617.31
2022-11-20T13:18:54.242Z,100613.47
2022-11-20T13:20:01.843Z,100613.88
2022-11-20T13:21:21.488Z,100612.50
2022-11-20T13:23:08.546Z,100619.13
2022-11-20T13:24:40.502Z,100623.19
2022-11-20T13:25:44.608Z,100614.19
2022-11-20T13:26:49.667Z,100623.97
2022-11-20T13:28:18.690Z,100622.56
2022-11-20T13:29:29.851Z,100633.25
2022-11-20T13:30:57.954Z,100636.06
2022-11-20T13:32:23.947Z,100642.75
2022-11-20T13:33:39.102Z,100646.94
2022-11-20T13:34:55.223Z,100643.13
2022-11-20T13:36:07.125Z,100635.84
2022-11-20T13:37:30.691Z,100641.31
2022-11-20T13:38:50.059Z,100644.22
2022-11-20T13:40:10.027Z,100638.81
2022-11-20T13:41:32.652Z,100633.06
2022-11-20T13:43:03.620Z,100637.56
2022-11-20T13:44:12.587Z,100636.88
2022-11-20T13:45:43.459Z,100639.88
2022-11-20T13:46:57.597Z,100644.31
2022-11-20T13:48:27.123Z,100636.06
2022-11-20T13:49:45.329Z,100640.09
2022-11-20T13:51:11.861Z,100639.88
2022-11-20T13:54:24.904Z,100645.44
2022-11-20T13:55:51.712Z,100642.53
2022-11-20T13:57:10.415Z,100633.66
2022-11-20T13:58:35.315Z,100643.22
2022-11-20T13:59:58.571Z,100650.66
2022-11-20T14:01:38.827Z,100657.63
2022-11-20T14:05:09.639Z,100648.78
2022-11-20T14:06:24.105Z,100656.72
2022-11-20T14:07:43.211Z,100653.00
2022-11-20T14:08:52.832Z,100647.19
2022-11-20T14:10:04.061Z,100653.00
2022-11-20T14:11:28.759Z,100649.16
2022-11-20T14:12:41.801Z,100650.69
2022-11-20T14:14:07.077Z,100650.81
2022-11-20T14:15:27.662Z,100653.19
2022-11-20T14:16:43.526Z,100660.16
2022-11-20T14:18:09.852Z,100664.41
2022-11-20T14:19:21.404Z,100663.47
2022-11-20T14:20:43.959Z,100667.81
2022-11-20T14:22:47.979Z,100668.03
2022-11-20T14:24:15.363Z,100666.22
2022-11-20T14:25:28.365Z,100675.81
2022-11-20T14:26:30.743Z,100671.66
2022-11-20T14:27:38.717Z,100669.44
2022-11-20T14:28:41.479Z,100674.19
2022-11-20T14:29:45.742Z,100674.78
2022-11-20T14:30:51.497Z,100670.56
2022-11-20T14:31:58.255Z,100665.91
2022-11-20T14:33:04.739Z,100671.94
2022-11-20T14:34:07.750Z,100668.13
2022-11-20T14:35:16.138Z,100674.47
2022-11-20T14:36:26.559Z,100666.09
2022-11-20T14:37:32.850Z,100674.16
2022-11-20T14:38:35.572Z,100671.53
2022-11-20T14:39:42.106Z,100669.34
2022-11-20T14:40:45.007Z,100679.13
2022-11-20T14:41:54.474Z,100678.97
2022-11-20T14:42:57.630Z,100678.81
2022-11-20T14:44:03.240Z,100686.88
2022-11-20T14:45:06.196Z,100693.09
2022-11-20T14:46:13.164Z,100697.84
2022-11-20T14:47:21.541Z,100694.56
2022-11-20T14:48:33.448Z,100698.88
2022-11-20T14:49:37.176Z,100701.47
2022-11-20T14:50:39.811Z,100706.38
2022-11-20T14:51:46.273Z,100698.75
2022-11-20T14:53:02.500Z,100704.44
2022-11-20T14:54:19.198Z,100710.38
2022-11-20T14:55:39.141Z,100697.75
2022-11-20T14:56:41.778Z,100692.72
2022-11-20T14:57:43.882Z,100692.38
2022-11-20T14:58:57.117Z,100702.72
2022-11-20T15:00:12.713Z,100696.44
2022-11-20T15:01:15.779Z,100698.69
2022-11-20T15:02:18.593Z,100695.91
2022-11-20T15:03:20.682Z,100696.81
2022-11-20T15:04:23.979Z,100686.22
2022-11-20T15:06:02.837Z,100693.06
2022-11-20T15:07:05.674Z,100699.63
2022-11-20T15:08:11.480Z,100689.19
2022-11-20T15:09:18.883Z,100693.06
2022-11-20T15:10:28.746Z,100681.16
2022-11-20T15:11:36.930Z,100689.66
2022-11-20T15:12:47.223Z,100691.78
2022-11-20T15:13:49.502Z,100693.91
2022-11-20T15:14:51.757Z,100696.91
2022-11-20T15:15:57.385Z,100704.97
2022-11-20T15:17:00.696Z,100698.69
2022-11-20T15:18:03.608Z,100696.47
2022-11-20T15:19:18.846Z,100690.81
2022-11-20T15:20:25.221Z,100689.09
2022-11-20T15:21:27.237Z,100688.06
2022-11-20T15:22:29.331Z,100689.50
2022-11-20T15:23:31.404Z,100686.00
2022-11-20T15:24:36.487Z,100686.78
2022-11-20T15:25:42.530Z,100688.44
2022-11-20T15:26:45.027Z,100684.22
2022-11-20T15:28:18.803Z,100679.16
2022-11-20T15:30:37.894Z,100676.84
2022-11-20T15:31:51.281Z,100673.19
2022-11-20T15:33:00.879Z,100684.47
2022-11-20T15:34:11.771Z,100687.47
2022-11-20T15:35:41.470Z,100684.31
2022-11-20T15:36:50.713Z,100686.97
2022-11-20T15:37:56.759Z,100698.25
2022-11-20T15:40:34.298Z,100689.00
2022-11-20T15:41:41.023Z,100686.91
2022-11-20T15:43:08.210Z,100684.03
2022-11-20T15:47:36.575Z,100684.41
2022-11-20T15:48:57.860Z,100695.69
2022-11-20T15:50:01.029Z,100681.47
2022-11-20T15:51:13.756Z,100686.53
2022-11-20T15:52:22.679Z,100682.75
2022-11-20T15:55:22.294Z,100682.78
2022-11-20T15:56:34.993Z,100690.47
2022-11-20T15:57:53.318Z,100677.34
2022-11-20T15:59:00.153Z,100681.00
2022-11-20T16:00:04.680Z,100673.31
2022-11-20T16:01:15.993Z,100672.59
2022-11-20T16:02:19.464Z,100680.34
2022-11-20T16:03:22.047Z,100695.69
2022-11-20T16:04:27.051Z,100701.34
2022-11-20T16:05:30.098Z,100705.59
2022-11-20T16:06:32.339Z,100702.16
2022-11-20T16:07:34.521Z,100704.19
2022-11-20T16:08:37.794Z,100700.28
2022-11-20T16:09:40.344Z,100701.06
2022-11-20T16:10:43.053Z,100707.34
2022-11-20T16:11:51.772Z,100707.00
2022-11-20T16:13:15.573Z,100700.56
2022-11-20T16:14:37.082Z,100700.28
2022-11-20T16:15:48.294Z,100691.38
2022-11-20T16:16:50.570Z,100693.22
2022-11-20T16:17:52.688Z,100683.56
2022-11-20T16:18:54.830Z,100679.56
2022-11-20T16:19:57.074Z,100686.81
2022-11-20T16:20:59.680Z,100682.88
2022-11-20T16:22:07.800Z,100681.78
2022-11-20T16:23:10.684Z,100683.06
2022-11-20T16:24:15.339Z,100691.81
2022-11-20T16:25:19.520Z,100700.06
2022-11-20T16:26:24.479Z,100690.56
2022-11-20T16:27:26.584Z,100688.22
2022-11-20T16:28:29.214Z,100678.47
2022-11-20T16:29:31.547Z,100680.50
2022-11-20T16:30:37.251Z,100678.53
2022-11-20T16:31:42.785Z,100672.00
2022-11-20T16:32:46.504Z,100680.72
2022-11-20T16:34:01.680Z,100683.66
2022-11-20T16:35:07.035Z,100683.75
2022-11-20T16:36:12.453Z,100682.34
2022-11-20T16:37:14.899Z,100686.41
2022-11-20T16:38:18.989Z,100689.19
2022-11-20T16:39:24.060Z,100686.91
2022-11-20T16:40:28.957Z,100689.34
2022-11-20T16:41:34.032Z,100687.88
2022-11-20T16:42:37.967Z,100693.53
2022-11-20T16:43:52.088Z,100694.50
2022-11-20T16:44:54.742Z,100687.72
2022-11-20T16:45:57.021Z,100699.84
2022-11-20T16:46:59.590Z,100700.38
2022-11-20T16:48:02.189Z,100701.56
2022-11-20T16:49:07.494Z,100699.13
2022-11-20T16:50:12.481Z,100698.09
2022-11-20T16:51:17.646Z,100690.59
2022-11-20T16:52:21.325Z,100695.69
2022-11-20T16:53:23.918Z,100683.28
2022-11-20T16:54:26.536Z,100692.66
2022-11-20T16:55:29.028Z,100695.69
2022-11-20T16:56:31.536Z,100695.69
2022-11-20T16:58:10.618Z,100694.00
2022-11-20T16:59:14.082Z,100683.13
2022-11-20T17:00:17.704Z,100682.63
2022-11-20T17:01:25.024Z,100687.31
2022-11-20T17:02:27.742Z,100694.84
2022-11-20T17:03:30.101Z,100700.38
2022-11-20T17:04:32.580Z,100705.44
2022-11-20T17:05:39.210Z,100696.59
2022-11-20T17:06:46.406Z,100696.06
2022-11-20T17:07:49.700Z,100696.72
2022-11-20T17:09:04.765Z,100695.75
2022-11-20T17:10:18.303Z,100690.69
2022-11-20T17:11:25.836Z,100697.25
2022-11-20T17:12:28.657Z,100695.19
2022-11-20T17:13:39.585Z,100700.22
2022-11-20T17:14:43.373Z,100697.03
2022-11-20T17:15:46.694Z,100694.84
2022-11-20T17:16:53.582Z,100689.41
2022-11-20T17:17:59.157Z,100690.63
2022-11-20T17:19:03.537Z,100683.44
2022-11-20T17:20:09.992Z,100691.22
2022-11-20T17:21:14.526Z,100691.16
2022-11-20T17:22:22.155Z,100678.53
2022-11-20T17:23:29.674Z,100682.34
2022-11-20T17:24:34.164Z,100677.88
2022-11-20T17:25:38.680Z,100673.09
2022-11-20T17:26:42.874Z,100677.63
2022-11-20T17:27:46.724Z,100678.72
2022-11-20T17:29:00.694Z,100683.72
2022-11-20T17:30:04.017Z,100684.81
2022-11-20T17:31:19.988Z,100691.28
2022-11-20T17:32:29.800Z,100686.34
2022-11-20T17:33:40.341Z,100692.38
2022-11-20T17:34:44.654Z,100688.28
2022-11-20T17:35:47.135Z,100696.72
2022-11-20T17:36:54.476Z,100702.56
2022-11-20T17:38:12.461Z,100699.78
2022-11-20T17:39:20.216Z,100693.84
2022-11-20T17:40:27.831Z,100699.94
2022-11-20T17:41:43.870Z,100703.69
2022-11-20T17:43:01.182Z,100702.16
2022-11-20T17:44:04.656Z,100709.19
2022-11-20T17:45:10.533Z,100699.94
2022-11-20T17:46:18.635Z,100708.59
2022-11-20T17:47:20.988Z,100700.59
2022-11-20T17:48:23.929Z,100702.06
2022-11-20T17:49:47.107Z,100698.41
2022-11-20T17:51:02.510Z,100697.13
2022-11-20T17:52:20.282Z,100690.84
2022-11-20T17:53:29.658Z,100698.69
2022-11-20T17:54:32.426Z,100696.72
2022-11-20T17:55:56.069Z,100693.47
2022-11-20T17:57:17.360Z,100701.94
2022-11-20T17:58:20.359Z,100706.09
2022-11-20T17:59:25.227Z,100714.63
2022-11-20T18:00:31.001Z,100711.31
2022-11-20T18:01:39.053Z,100710.38
2022-11-20T18:02:45.526Z,100708.69
2022-11-20T18:03:49.188Z,100711.41
2022-11-20T18:04:51.835Z,100705.53
2022-11-20T18:05:54.351Z,100711.19
2022-11-20T18:06:57.196Z,100707.81
2022-11-20T18:08:02.249Z,100709.03
2022-11-20T18:09:06.681Z,100705.28
2022-11-20T18:10:10.188Z,100698.09
2022-11-20T18:11:18.823Z,100704.56
2022-11-20T18:12:23.106Z,100689.06
2022-11-20T18:13:48.771Z,100686.13
2022-11-20T18:14:52.723Z,100695.25
2022-11-20T18:16:06.449Z,100696.56
2022-11-20T18:17:12.034Z,100694.38
2022-11-20T18:18:14.931Z,100693.47
2022-11-20T18:19:21.168Z,100698.41
2022-11-20T18:20:35.136Z,100699.50
2022-11-20T18:21:40.972Z,100695.53
2022-11-20T18:22:43.398Z,100690.91
2022-11-20T18:23:46.898Z,100688.78
2022-11-20T18:24:51.291Z,100695.69
2022-11-20T18:25:53.941Z,100692.75
2022-11-20T18:26:57.917Z,100692.91
2022-11-20T18:28:00.325Z,100697.03
2022-11-20T18:29:07.527Z,100689.81
2022-11-20T18:30:13.472Z,100697.09
2022-11-20T18:31:20.537Z,100691.78
2022-11-20T18:32:26.727Z,100697.28
2022-11-20T18:33:36.944Z,100714.47
2022-11-20T18:34:41.735Z,100703.91
2022-11-20T18:35:48.978Z,100718.72
2022-11-20T18:36:55.320Z,100724.75
2022-11-20T18:37:58.165Z,100722.84
2022-11-20T18:39:05.557Z,100725.50
2022-11-20T18:40:11.598Z,100719.56
2022-11-20T18:41:37.133Z,100719.47
2022-11-20T18:43:01.592Z,100714.63
2022-11-20T18:44:25.359Z,100715.22
2022-11-20T18:45:28.149Z,100718.38
2022-11-20T18:46:30.545Z,100714.84
2022-11-20T18:47:38.134Z,100718.81
2022-11-20T18:48:40.708Z,100713.44
2022-11-20T18:49:46.455Z,100714.47
2022-11-20T18:50:51.242Z,100715.50
2022-11-20T18:51:55.382Z,100707.88
2022-11-20T18:53:01.669Z,100716.00
2022-11-20T18:54:07.941Z,100715.72
2022-11-20T18:55:12.856Z,100710.19
2022-11-20T18:56:15.304Z,100717.00
2022-11-20T18:57:19.304Z,100711.59
2022-11-20T18:58:27.122Z,100714.41
2022-11-20T18:59:35.576Z,100713.81
2022-11-20T19:00:45.486Z,100717.41
2022-11-20T19:01:52.248Z,100717.13
2022-11-20T19:02:56.459Z,100705.50
2022-11-20T19:04:01.673Z,100705.09
2022-11-20T19:05:08.576Z,100702.16
2022-11-20T19:06:29.926Z,100703.66
2022-11-20T19:07:46.708Z,100702.47
2022-11-20T19:08:54.686Z,100699.84
2022-11-20T19:10:12.660Z,100707.09
2022-11-20T19:11:16.350Z,100699.44
2022-11-20T19:12:19.690Z,100695.81
2022-11-20T19:16:29.297Z,100697.75
2022-11-20T19:22:53.829Z,100687.84
2022-11-20T19:24:11.860Z,100681.09
2022-11-20T19:27:09.065Z,100681.00
2022-11-20T19:31:47.085Z,100683.41
2022-11-20T19:35:56.551Z,100665.09
2022-11-20T19:37:09.006Z,100675.88
2022-11-20T19:38:12.727Z,100675.72
2022-11-20T19:39:18.403Z,100668.16
2022-11-20T19:42:22.831Z,100681.94
2022-11-20T19:43:25.707Z,100685.56
2022-11-20T19:44:28.315Z,100685.84
2022-11-20T19:45:30.919Z,100685.34
2022-11-20T19:46:34.924Z,100683.53
2022-11-20T19:48:06.818Z,100682.19
2022-11-20T19:49:11.338Z,100687.63
2022-11-20T19:50:20.942Z,100689.22
2022-11-20T19:51:30.893Z,100691.19
2022-11-20T19:52:44.587Z,100687.38
2022-11-20T19:58:47.556Z,100681.81
2022-11-20T19:59:49.645Z,100680.13
2022-11-20T20:00:52.987Z,100687.34
2022-11-20T20:01:55.409Z,100687.16
2022-11-20T20:02:57.809Z,100685.47
2022-11-20T20:04:06.573Z,100692.47
2022-11-20T20:05:14.108Z,100695.84
2022-11-20T20:09:14.272Z,100696.91
2022-11-20T20:10:24.117Z,100700.38
2022-11-20T20:11:49.826Z,100694.50
2022-11-20T20:12:52.159Z,100692.47
2022-11-20T20:13:56.564Z,100697.31
2022-11-20T20:14:58.819Z,100697.69
2022-11-20T20:16:00.879Z,100698.56
2022-11-20T20:17:05.514Z,100711.53
2022-11-20T20:18:07.527Z,100722.28
2022-11-20T20:19:13.878Z,100721.41
2022-11-20T20:20:16.011Z,100722.56
2022-11-20T20:21:18.824Z,100730.50
2022-11-20T20:22:21.001Z,100730.78
2022-11-20T20:23:25.848Z,100724.63
2022-11-20T20:24:28.674Z,100721.22
2022-11-20T20:25:32.478Z,100715.00
2022-11-20T20:26:35.817Z,100711.84
2022-11-20T20:27:40.647Z,100702.97
2022-11-20T20:28:47.294Z,100702.81
2022-11-20T20:29:50.221Z,100715.59
2022-11-20T20:31:21.974Z,100717.72
2022-11-20T20:32:35.403Z,100723.13
2022-11-20T20:34:05.575Z,100721.66
2022-11-20T20:35:10.800Z,100718.97
2022-11-20T20:36:20.908Z,100727.03
2022-11-20T20:37:23.818Z,100723.09
2022-11-20T20:38:29.447Z,100724.41
2022-11-20T20:39:35.902Z,100725.22
2022-11-20T20:40:51.806Z,100721.31
2022-11-20T20:42:19.009Z,100723.47
2022-11-20T20:43:57.551Z,100723.69
2022-11-20T20:45:18.002Z,100715.56
2022-11-20T20:46:27.802Z,100724.84
2022-11-20T20:47:34.274Z,100716.19
2022-11-20T20:48:37.712Z,100717.19
2022-11-20T20:49:43.695Z,100712.50
2022-11-20T20:50:59.589Z,100698.09
2022-11-20T20:52:08.477Z,100700.03
2022-11-20T20:53:11.941Z,100698.47
2022-11-20T20:54:17.009Z,100701.72
2022-11-20T20:55:22.064Z,100708.56
2022-11-20T20:56:44.769Z,100710.59
2022-11-20T20:57:57.675Z,100711.50
2022-11-20T21:00:48.291Z,100722.72
2022-11-20T21:01:51.922Z,100721.66
2022-11-20T21:02:55.364Z,100722.84
2022-11-20T21:03:58.346Z,100719.56
2022-11-20T21:05:02.828Z,100720.44
2022-11-20T21:06:16.902Z,100721.09
2022-11-20T21:07:24.362Z,100710.38
2022-11-20T21:08:31.313Z,100715.44
2022-11-20T21:09:34.217Z,100724.13
2022-11-20T21:10:38.686Z,100716.53
2022-11-20T21:11:46.434Z,100724.25
2022-11-20T21:13:12.614Z,100728.16
2022-11-20T21:14:19.765Z,100726.09
2022-11-20T21:15:28.694Z,100720.50
2022-11-20T21:16:46.092Z,100724.53
2022-11-20T21:17:49.476Z,100714.84
2022-11-20T21:18:56.281Z,100719.56
2022-11-20T21:20:26.478Z,100715.59
2022-11-20T21:21:56.476Z,100718.81
2022-11-20T21:23:17.049Z,100719.03
2022-11-20T21:24:35.197Z,100717.13
2022-11-20T21:25:52.240Z,100712.56
2022-11-20T21:27:02.787Z,100716.69
2022-11-20T21:28:14.356Z,100720.88
2022-11-20T21:29:21.462Z,100710.81
2022-11-20T21:30:25.630Z,100714.06
2022-11-20T21:31:30.842Z,100723.00
2022-11-20T21:32:34.744Z,100720.44
2022-11-20T21:33:40.982Z,100731.38
2022-11-20T21:34:44.292Z,100732.72
2022-11-20T21:35:47.553Z,100733.41